SKL3 NZWN-NZWB
Flight info
| Callsign | SKL3 |
|---|---|
| Flight time | 0h 20m |
| Altitude | 14000 |
| Route | AVPOD |
| Aircraft | C25C/M-SDE2E3FGHRWXY/LB1 |
Departure
| Time | 2026-04-25 06:22 |
|---|---|
| Airport | Wellington International Airport (NZWN) |
Arrival
| Time | 2026-04-25 06:43 |
|---|---|
| Airport | Woodbourne Airport (NZWB) |
| Time | Latitude | Longitude | Altitude | Speed | Heading |
|---|---|---|---|---|---|
| 2026-04-25 05:46 | -41.32574 | 174.80501 | 21 ft | 0 kts | 181° |
| 2026-04-25 06:08 | -41.32594 | 174.80519 | 22 ft | 11 kts | 128° |
| 2026-04-25 06:08 | -41.32661 | 174.80530 | 20 ft | 0 kts | 181° |
| 2026-04-25 06:10 | -41.32664 | 174.80530 | 22 ft | 3 kts | 174° |
| 2026-04-25 06:10 | -41.32678 | 174.80563 | 21 ft | 0 kts | 93° |
| 2026-04-25 06:14 | -41.32678 | 174.80575 | 20 ft | 4 kts | 94° |
| 2026-04-25 06:14 | -41.32679 | 174.80584 | 20 ft | 0 kts | 92° |
| 2026-04-25 06:19 | -41.32682 | 174.80664 | 20 ft | 14 kts | 85° |
| 2026-04-25 06:20 | -41.32658 | 174.80692 | 22 ft | 0 kts | 3° |
| 2026-04-25 06:22 | -41.32622 | 174.80695 | 22 ft | 35 kts | 2° |
| 2026-04-25 06:22 | -41.32023 | 174.80735 | 85 ft | 131 kts | 2° |
| 2026-04-25 06:22 | -41.31090 | 174.80828 | 1245 ft | 134 kts | 4° |
| 2026-04-25 06:22 | -41.29906 | 174.81020 | 1801 ft | 208 kts | 6° |
| 2026-04-25 06:23 | -41.28459 | 174.81085 | 3478 ft | 212 kts | 349° |
| 2026-04-25 06:23 | -41.27128 | 174.80197 | 4906 ft | 223 kts | 318° |
| 2026-04-25 06:23 | -41.25992 | 174.78642 | 6018 ft | 255 kts | 308° |
| 2026-04-25 06:23 | -41.24659 | 174.76717 | 6017 ft | 296 kts | 313° |
| 2026-04-25 06:24 | -41.23247 | 174.74956 | 6006 ft | 262 kts | 314° |
| 2026-04-25 06:24 | -41.21994 | 174.73355 | 6001 ft | 239 kts | 313° |
| 2026-04-25 06:24 | -41.20847 | 174.71850 | 5996 ft | 224 kts | 312° |
| 2026-04-25 06:24 | -41.19772 | 174.70436 | 5983 ft | 211 kts | 312° |
| 2026-04-25 06:25 | -41.18755 | 174.69093 | 5982 ft | 200 kts | 310° |
| 2026-04-25 06:25 | -41.18134 | 174.67546 | 5981 ft | 185 kts | 277° |
| 2026-04-25 06:25 | -41.18147 | 174.65932 | 5983 ft | 172 kts | 250° |
| 2026-04-25 06:25 | -41.18656 | 174.64549 | 5984 ft | 164 kts | 237° |
| 2026-04-25 06:26 | -41.19213 | 174.63257 | 5981 ft | 158 kts | 236° |
| 2026-04-25 06:26 | -41.19777 | 174.61996 | 5984 ft | 172 kts | 237° |
| 2026-04-25 06:26 | -41.20497 | 174.60386 | 6009 ft | 233 kts | 237° |
| 2026-04-25 06:26 | -41.21377 | 174.58375 | 6017 ft | 256 kts | 238° |
| 2026-04-25 06:27 | -41.22267 | 174.56339 | 6008 ft | 253 kts | 237° |
| 2026-04-25 06:27 | -41.23143 | 174.54329 | 6002 ft | 250 kts | 237° |
| 2026-04-25 06:27 | -41.24020 | 174.52345 | 6004 ft | 248 kts | 237° |
| 2026-04-25 06:27 | -41.24885 | 174.50366 | 6001 ft | 246 kts | 237° |
| 2026-04-25 06:28 | -41.25745 | 174.48407 | 5998 ft | 245 kts | 237° |
| 2026-04-25 06:28 | -41.26598 | 174.46461 | 6053 ft | 242 kts | 237° |
| 2026-04-25 06:28 | -41.27440 | 174.44529 | 6058 ft | 241 kts | 237° |
| 2026-04-25 06:28 | -41.28278 | 174.42623 | 6063 ft | 241 kts | 237° |
| 2026-04-25 06:29 | -41.29116 | 174.40697 | 6059 ft | 241 kts | 237° |
| 2026-04-25 06:29 | -41.29959 | 174.38770 | 6057 ft | 241 kts | 237° |
| 2026-04-25 06:29 | -41.30810 | 174.36822 | 6052 ft | 246 kts | 237° |
| 2026-04-25 06:29 | -41.31677 | 174.34847 | 6112 ft | 248 kts | 236° |
| 2026-04-25 06:30 | -41.32915 | 174.33289 | 6142 ft | 247 kts | 210° |
| 2026-04-25 06:30 | -41.34374 | 174.32053 | 6157 ft | 251 kts | 213° |
| 2026-04-25 06:30 | -41.35827 | 174.30803 | 6179 ft | 253 kts | 211° |
| 2026-04-25 06:30 | -41.37322 | 174.29547 | 6185 ft | 255 kts | 211° |
| 2026-04-25 06:31 | -41.38829 | 174.28276 | 6190 ft | 257 kts | 211° |
| 2026-04-25 06:31 | -41.40341 | 174.26982 | 6190 ft | 259 kts | 211° |
| 2026-04-25 06:31 | -41.41868 | 174.25691 | 6189 ft | 260 kts | 211° |
| 2026-04-25 06:31 | -41.43395 | 174.24384 | 6186 ft | 261 kts | 211° |
| 2026-04-25 06:32 | -41.44934 | 174.23083 | 6188 ft | 262 kts | 211° |
| 2026-04-25 06:32 | -41.46471 | 174.21767 | 6187 ft | 263 kts | 211° |
| 2026-04-25 06:32 | -41.48012 | 174.20445 | 6185 ft | 263 kts | 214° |
| 2026-04-25 06:32 | -41.49198 | 174.18582 | 6091 ft | 271 kts | 240° |
| 2026-04-25 06:33 | -41.49758 | 174.16168 | 6018 ft | 272 kts | 257° |
| 2026-04-25 06:33 | -41.50078 | 174.13713 | 5990 ft | 265 kts | 258° |
| 2026-04-25 06:33 | -41.50369 | 174.11318 | 5980 ft | 258 kts | 258° |
| 2026-04-25 06:33 | -41.50676 | 174.08988 | 5975 ft | 252 kts | 257° |
| 2026-04-25 06:34 | -41.50974 | 174.06733 | 5971 ft | 248 kts | 257° |
| 2026-04-25 06:34 | -41.51276 | 174.04477 | 5970 ft | 245 kts | 257° |
| 2026-04-25 06:34 | -41.51568 | 174.02244 | 5967 ft | 244 kts | 257° |
| 2026-04-25 06:34 | -41.51867 | 173.99973 | 5854 ft | 254 kts | 257° |
| 2026-04-25 06:35 | -41.52182 | 173.97593 | 5557 ft | 264 kts | 257° |
| 2026-04-25 06:35 | -41.52497 | 173.95157 | 5212 ft | 267 kts | 258° |
| 2026-04-25 06:35 | -41.52820 | 173.92708 | 4853 ft | 269 kts | 258° |
| 2026-04-25 06:35 | -41.53137 | 173.90242 | 4499 ft | 269 kts | 258° |
| 2026-04-25 06:36 | -41.53464 | 173.87780 | 4141 ft | 267 kts | 258° |
| 2026-04-25 06:36 | -41.54104 | 173.85582 | 4004 ft | 250 kts | 233° |
| 2026-04-25 06:36 | -41.55052 | 173.83794 | 3999 ft | 216 kts | 236° |
| 2026-04-25 06:36 | -41.55741 | 173.82386 | 3973 ft | 153 kts | 233° |
| 2026-04-25 06:37 | -41.56280 | 173.81338 | 3893 ft | 127 kts | 233° |
| 2026-04-25 06:37 | -41.56770 | 173.80402 | 3735 ft | 121 kts | 233° |
| 2026-04-25 06:37 | -41.57244 | 173.79480 | 3576 ft | 120 kts | 233° |
| 2026-04-25 06:37 | -41.57594 | 173.78470 | 3410 ft | 122 kts | 254° |
| 2026-04-25 06:38 | -41.57703 | 173.77354 | 3240 ft | 122 kts | 271° |
| 2026-04-25 06:38 | -41.57537 | 173.76246 | 3073 ft | 123 kts | 287° |
| 2026-04-25 06:38 | -41.57118 | 173.75252 | 2905 ft | 123 kts | 307° |
| 2026-04-25 06:38 | -41.56491 | 173.74473 | 2733 ft | 124 kts | 327° |
| 2026-04-25 06:39 | -41.55709 | 173.73993 | 2551 ft | 124 kts | 344° |
| 2026-04-25 06:39 | -41.54855 | 173.73876 | 2372 ft | 124 kts | 2° |
| 2026-04-25 06:39 | -41.54020 | 173.74119 | 2199 ft | 123 kts | 21° |
| 2026-04-25 06:39 | -41.53283 | 173.74687 | 2020 ft | 123 kts | 40° |
| 2026-04-25 06:40 | -41.52713 | 173.75527 | 1837 ft | 122 kts | 57° |
| 2026-04-25 06:40 | -41.52377 | 173.76565 | 1655 ft | 122 kts | 76° |
| 2026-04-25 06:40 | -41.52287 | 173.77676 | 1483 ft | 122 kts | 86° |
| 2026-04-25 06:40 | -41.52236 | 173.78802 | 1303 ft | 122 kts | 85° |
| 2026-04-25 06:41 | -41.52172 | 173.79924 | 1112 ft | 120 kts | 85° |
| 2026-04-25 06:41 | -41.52112 | 173.81036 | 921 ft | 119 kts | 85° |
| 2026-04-25 06:41 | -41.52052 | 173.82133 | 742 ft | 118 kts | 84° |
| 2026-04-25 06:41 | -41.51985 | 173.83222 | 576 ft | 117 kts | 85° |
| 2026-04-25 06:42 | -41.51925 | 173.84285 | 423 ft | 116 kts | 86° |
| 2026-04-25 06:42 | -41.51879 | 173.85354 | 252 ft | 113 kts | 84° |
| 2026-04-25 06:42 | -41.51816 | 173.86357 | 130 ft | 102 kts | 84° |
| 2026-04-25 06:42 | -41.51771 | 173.87189 | 115 ft | 79 kts | 88° |
| 2026-04-25 06:43 | -41.51755 | 173.87670 | 107 ft | 23 kts | 95° |
| 2026-04-25 06:43 | -41.51746 | 173.87691 | 111 ft | 18 kts | 274° |
| 2026-04-25 06:43 | -41.51759 | 173.87418 | 110 ft | 35 kts | 266° |
| 2026-04-25 06:43 | -41.51775 | 173.87128 | 113 ft | 29 kts | 265° |
| 2026-04-25 06:44 | -41.51774 | 173.86838 | 118 ft | 17 kts | 335° |
| 2026-04-25 06:44 | -41.51628 | 173.86823 | 118 ft | 28 kts | 356° |
| 2026-04-25 06:44 | -41.51489 | 173.86829 | 116 ft | 14 kts | 12° |
| 2026-04-25 06:44 | -41.51445 | 173.86901 | 117 ft | 9 kts | 107° |